createdAt,value
2022-09-21T00:42:41.867Z,6.80
2022-09-21T00:47:44.603Z,6.90
2022-09-21T00:52:47.634Z,6.80
2022-09-21T00:57:50.314Z,6.80
2022-09-21T01:02:55.226Z,6.80
2022-09-21T01:53:37.946Z,6.10
2022-09-21T01:58:40.638Z,6.10
2022-09-21T02:03:43.740Z,6.10
2022-09-21T02:08:46.430Z,6.00
2022-09-21T02:13:49.204Z,5.90
2022-09-21T02:18:51.875Z,5.90
2022-09-21T02:23:54.630Z,5.90
2022-09-21T02:28:57.860Z,5.90
2022-09-21T02:34:00.608Z,5.90
2022-09-21T02:39:03.333Z,5.80
2022-09-21T02:44:06.275Z,5.80
2022-09-21T02:49:09.230Z,5.80
2022-09-21T02:54:11.896Z,5.90
2022-09-21T02:59:14.945Z,5.80
2022-09-21T03:04:17.664Z,5.70
2022-09-21T03:09:24.174Z,5.70
2022-09-21T03:14:26.878Z,5.80
2022-09-21T03:19:29.564Z,5.60
2022-09-21T03:24:48.051Z,5.90
2022-09-21T04:10:27.132Z,5.30
2022-09-21T04:15:30.526Z,5.10
2022-09-21T04:20:33.376Z,5.20
2022-09-21T04:25:36.234Z,5.20
2022-09-21T04:30:39.320Z,5.20
2022-09-21T04:35:42.754Z,5.70
2022-09-21T04:40:46.119Z,5.20
2022-09-21T04:45:48.856Z,5.20
2022-09-21T04:50:51.659Z,5.20
2022-09-21T04:55:55.433Z,5.20
2022-09-21T05:00:58.239Z,5.20
2022-09-21T05:06:01.826Z,5.10
2022-09-21T05:11:04.800Z,5.20
2022-09-21T05:16:07.506Z,5.10
2022-09-21T05:21:10.224Z,5.20
2022-09-21T05:26:13.074Z,5.20
2022-09-21T05:31:18.039Z,5.30
2022-09-21T05:36:21.140Z,5.40
2022-09-21T05:41:24.269Z,5.50
2022-09-21T05:46:27.083Z,5.70
2022-09-21T05:51:29.819Z,5.90
2022-09-21T05:56:32.557Z,6.30
2022-09-21T06:01:35.425Z,6.60
2022-09-21T06:06:38.202Z,6.90
2022-09-21T06:11:41.744Z,7.20
2022-09-21T06:16:44.466Z,7.40
2022-09-21T06:21:47.374Z,7.70
2022-09-21T06:26:50.085Z,7.90
2022-09-21T06:31:52.795Z,8.10
2022-09-21T06:36:55.437Z,8.50
2022-09-21T06:41:59.235Z,8.60
2022-09-21T06:47:01.930Z,8.80
2022-09-21T06:52:04.617Z,8.90
2022-09-21T06:57:07.356Z,9.00
2022-09-21T07:02:10.110Z,9.10
2022-09-21T07:07:12.937Z,9.20
2022-09-21T07:12:16.206Z,9.20
2022-09-21T07:17:19.482Z,9.40
2022-09-21T07:22:22.388Z,9.60
2022-09-21T07:27:25.159Z,9.80
2022-09-21T07:32:27.924Z,9.90
2022-09-21T07:37:30.649Z,10.00
2022-09-21T07:42:34.755Z,10.10
2022-09-21T07:47:37.462Z,10.20
2022-09-21T07:52:40.175Z,10.20
2022-09-21T07:58:00.957Z,10.30
2022-09-21T08:03:05.081Z,10.30
2022-09-21T08:08:08.213Z,10.50
2022-09-21T08:13:11.750Z,10.80
2022-09-21T08:18:14.453Z,11.00
2022-09-21T08:23:18.676Z,11.30
2022-09-21T08:28:21.811Z,11.20
2022-09-21T08:33:28.683Z,11.40
2022-09-21T08:38:34.494Z,11.40
2022-09-21T08:43:40.027Z,11.50
2022-09-21T08:48:42.790Z,11.50
2022-09-21T08:53:45.925Z,11.80
2022-09-21T08:58:48.761Z,12.00
2022-09-21T09:03:51.452Z,12.00
2022-09-21T09:08:57.622Z,12.00
2022-09-21T09:14:00.364Z,12.20
2022-09-21T09:19:03.154Z,12.40
2022-09-21T09:24:05.836Z,12.50
2022-09-21T09:29:08.549Z,12.30
2022-09-21T09:34:17.275Z,12.20
2022-09-21T09:39:19.951Z,11.90
2022-09-21T09:44:22.702Z,12.10
2022-09-21T09:49:25.350Z,12.80
2022-09-21T09:54:28.022Z,13.30
2022-09-21T09:59:31.051Z,13.40
2022-09-21T10:04:34.748Z,13.20
2022-09-21T10:09:37.521Z,12.90
2022-09-21T10:14:40.235Z,12.80
2022-09-21T10:19:43.019Z,12.50
2022-09-21T10:24:46.441Z,12.50
2022-09-21T10:29:49.093Z,13.00
2022-09-21T10:34:51.772Z,13.40
2022-09-21T10:39:54.471Z,13.30
2022-09-21T10:44:57.233Z,13.20
2022-09-21T10:50:00.373Z,13.20
2022-09-21T10:55:03.125Z,13.20
2022-09-21T11:00:06.380Z,13.20
2022-09-21T11:05:09.108Z,13.40
2022-09-21T11:10:11.770Z,13.50
2022-09-21T11:15:14.478Z,13.80
2022-09-21T11:20:17.191Z,14.00
2022-09-21T11:25:19.909Z,13.80
2022-09-21T11:30:22.774Z,14.00
2022-09-21T18:36:43.890Z,10.10
2022-09-21T18:41:47.696Z,9.90
2022-09-21T18:46:50.501Z,10.00
2022-09-21T18:51:53.249Z,10.00
2022-09-21T18:56:56.076Z,9.90
2022-09-21T19:02:00.205Z,9.90
2022-09-21T19:07:03.045Z,9.70
2022-09-21T19:12:07.570Z,9.60
2022-09-21T19:17:10.270Z,9.50
2022-09-21T19:22:19.649Z,9.40
2022-09-21T19:27:22.385Z,9.20
2022-09-21T19:32:25.154Z,9.10
2022-09-21T19:37:27.925Z,9.10
2022-09-21T19:42:31.157Z,8.90
2022-09-21T19:47:34.580Z,8.90
2022-09-21T19:52:37.488Z,8.80
2022-09-21T19:57:58.111Z,8.70
2022-09-21T20:03:01.186Z,8.70
2022-09-21T20:08:04.396Z,8.70
2022-09-21T20:13:07.668Z,8.60
2022-09-21T20:18:10.549Z,8.40
2022-09-21T20:23:13.382Z,8.40
2022-09-21T20:28:16.394Z,8.40
2022-09-21T20:33:23.044Z,8.40
2022-09-21T20:38:25.925Z,8.20
2022-09-21T20:43:32.639Z,8.10
2022-09-21T20:48:36.650Z,8.10
2022-09-21T20:53:39.943Z,8.00
2022-09-21T20:58:42.769Z,8.00
2022-09-21T21:03:45.587Z,7.90
2022-09-21T21:08:48.477Z,7.90
2022-09-21T21:13:51.330Z,7.80
2022-09-21T21:18:54.104Z,7.70
2022-09-21T22:09:48.360Z,7.10
2022-09-21T22:14:51.024Z,7.20
2022-09-21T22:19:54.091Z,7.10
2022-09-21T22:24:56.814Z,7.10
2022-09-21T22:29:59.626Z,7.00
2022-09-21T22:35:03.206Z,7.10
2022-09-21T22:40:06.678Z,7.00
2022-09-21T22:45:09.853Z,6.90
2022-09-21T22:50:12.683Z,7.00
2022-09-21T22:55:22.026Z,7.00
2022-09-21T23:00:24.733Z,6.90
2022-09-21T23:05:27.837Z,6.90
2022-09-21T23:10:30.538Z,7.00
2022-09-21T23:15:33.303Z,6.90
2022-09-21T23:20:36.032Z,6.90
2022-09-21T23:25:38.719Z,7.10
2022-09-21T23:30:41.749Z,6.70
2022-09-21T23:35:44.409Z,6.80
2022-09-21T23:40:47.156Z,6.80
2022-09-21T23:45:49.892Z,6.60
2022-09-21T23:50:56.514Z,6.70
2022-09-21T23:56:01.133Z,6.50
